createdAt,value
2018-06-19T00:01:53.192Z,11.00
2018-06-19T00:04:21.758Z,10.40
2018-06-19T00:06:50.293Z,11.10
2018-06-19T00:09:18.594Z,10.90
2018-06-19T00:11:47.148Z,11.73
2018-06-19T00:14:15.657Z,10.63
2018-06-19T00:16:44.222Z,10.57
2018-06-19T00:19:12.716Z,11.43
2018-06-19T00:21:42.951Z,11.00
2018-06-19T00:24:11.436Z,11.23
2018-06-19T00:26:39.702Z,10.80
2018-06-19T00:29:08.231Z,11.50
2018-06-19T00:31:36.742Z,11.30
2018-06-19T00:34:05.282Z,11.30
2018-06-19T00:36:33.827Z,11.53
2018-06-19T00:39:02.357Z,11.80
2018-06-19T00:41:30.871Z,11.70
2018-06-19T00:43:59.440Z,11.50
2018-06-19T00:46:29.202Z,12.10
2018-06-19T00:48:57.733Z,11.70
2018-06-19T00:51:26.219Z,11.20
2018-06-19T00:53:54.708Z,12.53
2018-06-19T00:56:34.767Z,11.93
2018-06-19T00:59:03.305Z,11.23
2018-06-19T01:01:31.833Z,12.20
2018-06-19T01:04:00.339Z,12.83
2018-06-19T01:06:28.922Z,13.53
2018-06-19T01:08:57.596Z,12.23
2018-06-19T01:11:26.169Z,12.30
2018-06-19T01:13:54.403Z,12.80
2018-06-19T01:16:22.984Z,12.53
2018-06-19T01:18:51.595Z,12.70
2018-06-19T01:21:20.082Z,13.63
2018-06-19T01:23:48.553Z,12.77
2018-06-19T01:26:17.040Z,13.23
2018-06-19T01:28:45.557Z,13.17
2018-06-19T01:31:14.087Z,13.47
2018-06-19T01:33:42.662Z,13.47
2018-06-19T01:36:11.160Z,13.43
2018-06-19T01:38:39.781Z,14.33
2018-06-19T01:41:08.228Z,14.67
2018-06-19T01:43:36.698Z,14.10
2018-06-19T01:46:05.284Z,13.20
2018-06-19T01:48:33.769Z,13.53
2018-06-19T01:51:02.217Z,13.63
2018-06-19T01:53:30.683Z,14.90
2018-06-19T01:55:59.172Z,13.80
2018-06-19T01:58:27.696Z,14.13
2018-06-19T02:00:56.150Z,14.97
2018-06-19T02:03:24.595Z,14.47
2018-06-19T02:05:53.063Z,15.03
2018-06-19T02:08:21.508Z,15.80
2018-06-19T02:10:49.967Z,16.63
2018-06-19T02:13:18.599Z,16.33
2018-06-19T02:15:47.085Z,16.10
2018-06-19T02:18:15.519Z,16.07
2018-06-19T02:20:44.024Z,15.43
2018-06-19T02:23:12.460Z,16.53
2018-06-19T02:25:40.914Z,15.53
2018-06-19T02:28:09.364Z,16.57
2018-06-19T02:30:37.815Z,15.93
2018-06-19T02:33:06.122Z,16.97
2018-06-19T02:35:34.613Z,17.30
2018-06-19T02:38:03.048Z,17.30
2018-06-19T02:40:31.634Z,16.73
2018-06-19T02:43:00.068Z,16.33
2018-06-19T02:45:28.522Z,16.17
2018-06-19T02:47:56.682Z,16.83
2018-06-19T02:50:25.110Z,16.90
2018-06-19T02:52:53.760Z,16.90
2018-06-19T02:55:22.232Z,16.63
2018-06-19T02:57:50.710Z,16.60
2018-06-19T03:00:19.220Z,17.07
2018-06-19T03:02:47.708Z,16.70
2018-06-19T03:05:15.870Z,16.57
2018-06-19T03:07:44.351Z,16.17
2018-06-19T03:10:12.947Z,16.23
2018-06-19T03:12:41.439Z,16.73
2018-06-19T03:15:09.903Z,16.53
2018-06-19T03:17:38.382Z,16.70
2018-06-19T03:20:06.906Z,16.40
2018-06-19T03:22:35.077Z,16.27
2018-06-19T03:25:03.560Z,15.80
2018-06-19T03:27:32.030Z,17.30
2018-06-19T03:30:00.482Z,15.40
2018-06-19T03:32:29.001Z,16.37
2018-06-19T03:34:57.504Z,15.73
2018-06-19T03:37:26.073Z,16.73
2018-06-19T03:39:54.543Z,16.53
2018-06-19T03:42:23.049Z,15.17
2018-06-19T03:44:51.533Z,15.50
2018-06-19T03:47:20.000Z,16.37
2018-06-19T03:49:48.495Z,16.03
2018-06-19T03:52:16.985Z,15.67
2018-06-19T03:54:45.507Z,15.20
2018-06-19T03:57:13.754Z,16.30
2018-06-19T03:59:42.271Z,15.60
2018-06-19T04:02:10.761Z,14.67
2018-06-19T04:04:38.956Z,14.87
2018-06-19T04:07:07.434Z,14.67
2018-06-19T04:09:35.731Z,15.70
2018-06-19T04:12:04.212Z,14.70
2018-06-19T04:14:32.742Z,15.13
2018-06-19T04:17:01.248Z,15.03
2018-06-19T04:19:29.527Z,14.80
2018-06-19T04:21:58.082Z,14.70
2018-06-19T04:24:26.606Z,15.23
2018-06-19T04:26:55.081Z,14.83
2018-06-19T04:29:23.584Z,15.40
2018-06-19T04:31:51.734Z,14.90
2018-06-19T04:34:20.243Z,16.53
2018-06-19T04:36:48.706Z,15.30
2018-06-19T04:39:17.231Z,14.77
2018-06-19T04:41:45.776Z,15.87
2018-06-19T04:44:14.761Z,15.07
2018-06-19T04:46:43.463Z,15.13
2018-06-19T04:49:11.959Z,14.63
2018-06-19T04:51:40.656Z,15.70
2018-06-19T04:54:09.855Z,14.57
2018-06-19T04:56:38.319Z,14.83
2018-06-19T04:59:06.760Z,15.60
2018-06-19T05:01:35.503Z,14.93
2018-06-19T05:04:04.189Z,14.50
2018-06-19T05:06:32.654Z,14.23
2018-06-19T05:09:01.143Z,14.53
2018-06-19T05:11:29.700Z,14.03
2018-06-19T05:13:58.173Z,14.50
2018-06-19T05:16:26.385Z,14.17
2018-06-19T05:18:55.052Z,13.97
2018-06-19T05:21:23.567Z,13.83
2018-06-19T05:23:52.028Z,13.53
2018-06-19T05:26:20.457Z,12.83
2018-06-19T05:28:48.916Z,12.37
2018-06-19T05:31:17.391Z,13.30
2018-06-19T05:33:45.864Z,12.37
2018-06-19T05:36:14.039Z,12.87
2018-06-19T05:38:42.472Z,12.97
2018-06-19T05:41:11.023Z,12.13
2018-06-19T05:43:39.496Z,12.93
2018-06-19T05:46:07.701Z,12.40
2018-06-19T05:48:36.153Z,12.10
2018-06-19T05:51:04.621Z,12.70
2018-06-19T05:53:33.123Z,11.87
2018-06-19T05:56:01.342Z,11.83
2018-06-19T05:58:29.854Z,12.57
2018-06-19T06:00:58.344Z,12.20
2018-06-19T06:03:26.816Z,11.93
2018-06-19T06:05:55.420Z,11.73
2018-06-19T06:08:23.887Z,12.17
2018-06-19T06:10:52.334Z,12.30
2018-06-19T06:13:20.811Z,11.97
2018-06-19T06:15:48.982Z,11.77
2018-06-19T06:18:17.170Z,12.30
2018-06-19T06:20:45.758Z,12.33
2018-06-19T06:23:14.257Z,11.30
2018-06-19T06:25:42.708Z,11.60
2018-06-19T06:28:11.195Z,11.67
2018-06-19T06:30:39.637Z,11.63
2018-06-19T06:33:08.294Z,11.50
2018-06-19T06:35:36.788Z,10.77
2018-06-19T06:38:05.333Z,11.17
2018-06-19T06:40:33.863Z,10.97
2018-06-19T06:43:02.311Z,10.93
2018-06-19T06:45:30.825Z,10.70
2018-06-19T06:47:59.301Z,11.17
2018-06-19T06:50:27.556Z,10.27
2018-06-19T06:52:55.996Z,10.30
2018-06-19T06:55:24.467Z,10.37
2018-06-19T06:57:52.978Z,10.00
2018-06-19T07:00:22.412Z,10.30
2018-06-19T07:02:50.886Z,10.27
2018-06-19T07:05:19.364Z,9.30
2018-06-19T07:07:48.007Z,9.93
2018-06-19T07:10:16.375Z,9.40
2018-06-19T07:12:44.914Z,9.97
2018-06-19T07:15:13.387Z,8.93
2018-06-19T07:17:41.924Z,9.43
2018-06-19T07:20:10.614Z,8.90
2018-06-19T07:22:39.028Z,8.80
2018-06-19T07:25:07.522Z,9.30
2018-06-19T07:27:35.974Z,9.37
2018-06-19T07:30:04.465Z,8.63
2018-06-19T07:32:33.014Z,9.00
2018-06-19T07:35:01.468Z,9.07
2018-06-19T07:37:29.965Z,8.63
2018-06-19T07:39:58.529Z,8.50
2018-06-19T07:42:27.126Z,9.43
2018-06-19T07:44:55.564Z,8.67
2018-06-19T07:47:24.008Z,7.67
2018-06-19T07:49:52.472Z,8.50
2018-06-19T07:52:20.649Z,8.77
2018-06-19T07:54:48.798Z,8.17
2018-06-19T07:57:17.608Z,9.37
2018-06-19T07:59:46.063Z,8.57
2018-06-19T08:02:14.569Z,8.53
2018-06-19T08:04:43.142Z,9.20
2018-06-19T08:07:11.568Z,8.83
2018-06-19T08:09:40.613Z,8.87
2018-06-19T08:12:09.165Z,7.93
2018-06-19T08:14:37.833Z,8.17
2018-06-19T08:17:06.026Z,8.50
2018-06-19T08:19:34.481Z,8.43
2018-06-19T08:22:02.926Z,8.03
2018-06-19T08:24:31.389Z,7.87
2018-06-19T08:26:59.839Z,8.73
2018-06-19T08:29:28.029Z,8.00
2018-06-19T08:31:56.173Z,8.20
2018-06-19T08:34:25.187Z,8.20
2018-06-19T08:36:53.368Z,9.37
2018-06-19T08:39:21.831Z,9.20
2018-06-19T08:41:50.332Z,9.73
2018-06-19T08:44:18.795Z,9.90
2018-06-19T08:46:47.246Z,9.63
2018-06-19T08:49:15.720Z,10.00
2018-06-19T08:51:44.181Z,10.27
2018-06-19T08:54:12.770Z,10.10
2018-06-19T08:56:41.201Z,8.93
2018-06-19T08:59:09.692Z,11.08
2018-06-19T09:01:38.140Z,9.80
2018-06-19T09:04:06.335Z,10.63
2018-06-19T09:06:34.859Z,10.20
2018-06-19T09:09:03.446Z,9.93
2018-06-19T09:11:31.985Z,9.73
2018-06-19T09:14:00.166Z,8.70
2018-06-19T09:16:28.323Z,8.63
2018-06-19T09:18:56.790Z,9.10
2018-06-19T09:21:25.276Z,9.20
2018-06-19T09:23:53.747Z,8.93
2018-06-19T09:26:22.214Z,8.03
2018-06-19T09:28:50.672Z,9.63
2018-06-19T09:31:19.199Z,9.30
2018-06-19T09:33:47.621Z,9.47
2018-06-19T09:36:16.201Z,9.17
2018-06-19T09:38:44.652Z,9.37
2018-06-19T09:41:13.163Z,8.53
2018-06-19T09:43:41.568Z,9.33
2018-06-19T09:46:10.045Z,9.17
2018-06-19T09:48:38.489Z,9.17
2018-06-19T09:51:06.981Z,9.33
2018-06-19T09:53:35.463Z,9.57
2018-06-19T09:56:03.971Z,9.47
2018-06-19T09:58:32.497Z,9.47
2018-06-19T10:01:01.244Z,9.30
2018-06-19T10:03:30.383Z,9.40
2018-06-19T10:05:58.546Z,9.10
2018-06-19T10:08:27.000Z,9.50
2018-06-19T10:10:55.703Z,8.83
2018-06-19T10:13:24.208Z,9.63
2018-06-19T10:15:52.694Z,8.97
2018-06-19T10:18:21.166Z,9.57
2018-06-19T10:20:49.604Z,9.27
2018-06-19T10:23:18.068Z,9.20
2018-06-19T10:25:46.520Z,9.77
2018-06-19T10:28:14.987Z,9.70
2018-06-19T10:30:43.496Z,9.53
2018-06-19T10:33:12.047Z,9.13
2018-06-19T10:35:40.520Z,9.13
2018-06-19T10:38:09.408Z,9.40
2018-06-19T10:40:37.933Z,9.30
2018-06-19T10:43:06.444Z,9.97
2018-06-19T10:45:34.877Z,9.90
2018-06-19T10:48:03.349Z,11.07
2018-06-19T10:50:31.792Z,8.80
2018-06-19T10:53:00.266Z,10.30
2018-06-19T10:55:28.713Z,9.37
2018-06-19T10:57:57.157Z,9.93
2018-06-19T11:00:25.632Z,9.90
2018-06-19T11:02:54.219Z,9.10
2018-06-19T11:05:22.691Z,9.50
2018-06-19T11:07:51.130Z,9.97
2018-06-19T11:10:19.738Z,9.83
2018-06-19T11:12:48.243Z,9.90
2018-06-19T11:15:16.710Z,11.07
2018-06-19T11:17:45.162Z,11.40
2018-06-19T11:20:13.321Z,12.07
2018-06-19T11:22:41.831Z,10.87
2018-06-19T11:25:10.338Z,10.73
2018-06-19T11:27:38.938Z,11.57
2018-06-19T11:30:07.380Z,10.87
2018-06-19T11:32:35.545Z,11.50
2018-06-19T11:35:04.052Z,11.80
2018-06-19T11:37:32.206Z,11.57
2018-06-19T11:40:00.722Z,12.93
2018-06-19T11:42:29.200Z,13.50
2018-06-19T11:44:57.393Z,13.60
2018-06-19T11:47:25.851Z,13.13
2018-06-19T11:49:54.292Z,13.83
2018-06-19T11:52:22.793Z,12.50
2018-06-19T11:54:51.304Z,13.90
2018-06-19T11:57:19.809Z,13.57
2018-06-19T11:59:47.974Z,14.23
2018-06-19T12:02:16.467Z,13.43
2018-06-19T12:04:44.632Z,14.03
2018-06-19T12:07:13.155Z,14.93
2018-06-19T12:09:41.685Z,15.00
2018-06-19T12:12:10.227Z,13.27
2018-06-19T12:14:38.806Z,12.43
2018-06-19T12:17:07.293Z,11.33
2018-06-19T12:19:35.783Z,10.97
2018-06-19T12:22:04.518Z,11.53
2018-06-19T12:24:33.070Z,12.13
2018-06-19T12:27:01.604Z,12.27
2018-06-19T12:29:30.073Z,12.57
2018-06-19T12:31:58.531Z,12.93
2018-06-19T12:34:27.097Z,13.03
2018-06-19T12:36:55.252Z,13.70
2018-06-19T12:39:23.805Z,14.10
2018-06-19T12:41:52.278Z,14.23
2018-06-19T12:44:20.763Z,13.77
2018-06-19T12:46:49.258Z,13.67
2018-06-19T12:49:31.019Z,14.40
2018-06-19T12:52:10.725Z,14.70
2018-06-19T12:55:50.763Z,15.00
2018-06-19T12:58:19.119Z,14.47
2018-06-19T13:00:47.703Z,14.17
2018-06-19T13:03:27.604Z,14.20
2018-06-19T13:06:07.977Z,13.20
2018-06-19T13:08:36.509Z,13.73
2018-06-19T13:11:05.485Z,14.10
2018-06-19T13:13:45.343Z,13.10
2018-06-19T13:17:24.420Z,12.93
2018-06-19T13:20:03.955Z,12.23
2018-06-19T13:22:32.402Z,12.13
2018-06-19T13:25:00.859Z,12.07
2018-06-19T13:27:29.381Z,11.10
2018-06-19T13:30:10.188Z,11.93
2018-06-19T13:32:39.227Z,11.83
2018-06-19T13:35:07.731Z,12.63
2018-06-19T13:37:36.195Z,11.20
2018-06-19T13:41:15.405Z,11.73
2018-06-19T13:43:55.667Z,11.40
2018-06-19T13:46:24.113Z,10.37
2018-06-19T13:48:52.544Z,9.93
2018-06-19T13:51:21.056Z,10.23
2018-06-19T13:53:49.516Z,9.40
2018-06-19T13:57:42.066Z,8.37
2018-06-19T14:00:13.395Z,7.70
2018-06-19T14:02:41.963Z,7.20
2018-06-19T14:05:11.159Z,6.13
2018-06-19T14:08:09.225Z,5.87
2018-06-19T14:10:48.801Z,3.93
2018-06-19T14:13:17.283Z,4.13
2018-06-19T14:15:46.962Z,3.67
2018-06-19T14:18:16.392Z,3.07
2018-06-19T14:20:44.882Z,2.90
2018-06-19T14:23:13.777Z,3.10
2018-06-19T14:25:42.263Z,3.10
2018-06-19T14:28:10.757Z,3.77
2018-06-19T14:30:39.201Z,3.40
2018-06-19T14:33:07.732Z,3.70
2018-06-19T14:35:36.171Z,3.80
2018-06-19T14:38:04.679Z,4.63
2018-06-19T14:40:33.432Z,3.90
2018-06-19T14:43:01.883Z,4.30
2018-06-19T14:45:30.331Z,4.67
2018-06-19T14:47:58.826Z,3.73
2018-06-19T14:50:27.325Z,3.80
2018-06-19T14:52:55.757Z,3.43
2018-06-19T14:55:24.224Z,3.50
2018-06-19T14:57:52.875Z,2.90
2018-06-19T15:00:21.943Z,2.33
2018-06-19T15:02:50.873Z,2.50
2018-06-19T15:05:20.080Z,2.10
2018-06-19T15:07:54.757Z,2.50
2018-06-19T15:10:24.367Z,2.00
2018-06-19T15:12:53.621Z,2.30
2018-06-19T15:15:23.099Z,2.80
2018-06-19T15:17:51.874Z,3.03
2018-06-19T15:20:21.216Z,2.30
2018-06-19T15:22:50.579Z,2.50
2018-06-19T15:25:19.051Z,2.10
2018-06-19T15:27:47.256Z,2.60
2018-06-19T15:30:15.779Z,2.27
2018-06-19T15:32:44.512Z,2.00
2018-06-19T15:35:13.975Z,2.20
2018-06-19T15:37:42.634Z,2.53
2018-06-19T15:40:12.602Z,2.10
2018-06-19T15:42:41.101Z,2.60
2018-06-19T15:45:09.693Z,2.40
2018-06-19T15:47:38.500Z,2.23
2018-06-19T15:50:08.014Z,2.17
2018-06-19T15:52:36.573Z,2.30
2018-06-19T15:55:05.296Z,1.80
2018-06-19T15:57:33.845Z,2.60
2018-06-19T16:00:03.144Z,2.07
2018-06-19T16:02:31.996Z,2.20
2018-06-19T16:05:00.979Z,2.10
2018-06-19T16:07:29.911Z,2.40
2018-06-19T16:09:59.334Z,2.00
2018-06-19T16:12:28.011Z,2.00
2018-06-19T16:14:56.702Z,2.23
2018-06-19T16:17:25.253Z,1.73
2018-06-19T16:19:53.884Z,1.90
2018-06-19T16:22:23.141Z,2.20
2018-06-19T16:24:51.721Z,2.30
2018-06-19T16:27:21.319Z,2.13
2018-06-19T16:29:50.356Z,2.27
2018-06-19T16:32:19.637Z,2.70
2018-06-19T16:34:48.081Z,2.50
2018-06-19T16:37:16.900Z,2.70
2018-06-19T16:39:46.208Z,2.40
2018-06-19T16:42:15.053Z,2.17
2018-06-19T16:44:43.919Z,2.40
2018-06-19T16:47:13.135Z,2.40
2018-06-19T16:49:41.620Z,1.90
2018-06-19T16:52:10.585Z,2.23
2018-06-19T16:54:39.559Z,2.23
2018-06-19T16:57:07.783Z,2.03
2018-06-19T16:59:36.416Z,1.77
2018-06-19T17:02:07.421Z,1.77
2018-06-19T17:04:36.826Z,2.00
2018-06-19T17:07:05.778Z,1.90
2018-06-19T17:09:34.774Z,1.87
2018-06-19T17:12:03.002Z,2.43
2018-06-19T17:14:32.478Z,2.30
2018-06-19T17:17:00.677Z,1.70
2018-06-19T17:19:29.176Z,2.27
2018-06-19T17:21:57.668Z,1.97
2018-06-19T17:24:26.218Z,2.00
2018-06-19T17:26:54.720Z,1.90
2018-06-19T17:29:23.216Z,2.00
2018-06-19T17:31:51.685Z,2.37
2018-06-19T17:34:20.123Z,2.00
2018-06-19T17:36:48.601Z,2.03
2018-06-19T17:39:17.035Z,2.00
2018-06-19T17:41:45.266Z,1.87
2018-06-19T17:44:13.798Z,1.93
2018-06-19T17:46:42.246Z,1.77
2018-06-19T17:49:10.721Z,2.10
2018-06-19T17:51:39.198Z,1.73
2018-06-19T17:54:07.636Z,2.00
2018-06-19T17:56:35.789Z,1.70
2018-06-19T17:59:04.292Z,2.13
2018-06-19T18:01:32.473Z,1.50
2018-06-19T18:04:00.617Z,1.60
2018-06-19T18:06:29.112Z,1.70
2018-06-19T18:08:57.615Z,1.90
2018-06-19T18:11:26.153Z,1.87
2018-06-19T18:13:54.609Z,1.83
2018-06-19T18:16:23.088Z,1.87
2018-06-19T18:18:51.256Z,2.00
2018-06-19T18:21:19.740Z,1.77
2018-06-19T18:23:47.966Z,1.60
2018-06-19T18:26:17.289Z,1.97
2018-06-19T18:28:45.730Z,1.97
2018-06-19T18:31:14.236Z,1.93
2018-06-19T18:33:42.722Z,2.10
2018-06-19T18:36:11.216Z,2.10
2018-06-19T18:38:39.641Z,2.30
2018-06-19T18:41:08.277Z,1.80
2018-06-19T18:43:36.738Z,1.77
2018-06-19T18:46:05.338Z,1.60
2018-06-19T18:48:33.837Z,2.10
2018-06-19T18:51:02.333Z,1.70
2018-06-19T18:53:30.773Z,1.90
2018-06-19T18:55:58.978Z,2.00
2018-06-19T18:58:27.464Z,1.90
2018-06-19T19:00:55.971Z,2.20
2018-06-19T19:03:24.457Z,2.30
2018-06-19T19:05:52.922Z,2.30
2018-06-19T19:08:23.593Z,2.20
2018-06-19T19:10:54.817Z,1.87
2018-06-19T19:13:24.432Z,2.20
2018-06-19T19:15:58.262Z,2.10
2018-06-19T19:18:31.977Z,2.50
2018-06-19T19:21:01.072Z,2.23
2018-06-19T19:23:30.057Z,2.50
2018-06-19T19:25:58.546Z,2.47
2018-06-19T19:28:32.415Z,2.90
2018-06-19T19:31:00.936Z,2.30
2018-06-19T19:33:29.440Z,1.97
2018-06-19T19:35:57.880Z,2.23
2018-06-19T19:38:31.844Z,2.33
2018-06-19T19:41:00.356Z,2.10
2018-06-19T19:43:28.891Z,2.27
2018-06-19T19:45:57.326Z,1.97
2018-06-19T19:48:31.229Z,2.60
2018-06-19T19:50:59.391Z,2.10
2018-06-19T19:53:27.834Z,2.40
2018-06-19T19:56:01.654Z,2.37
2018-06-19T19:58:35.588Z,2.13
2018-06-19T20:01:04.075Z,2.07
2018-06-19T20:03:32.514Z,2.37
2018-06-19T20:06:01.077Z,2.47
2018-06-19T20:08:29.463Z,1.90
2018-06-19T20:10:57.925Z,2.10
2018-06-19T20:13:26.431Z,2.43
2018-06-19T20:15:54.577Z,2.17
2018-06-19T20:18:23.005Z,2.00
2018-06-19T20:20:51.516Z,2.23
2018-06-19T20:23:19.983Z,1.67
2018-06-19T20:25:48.485Z,1.70
2018-06-19T20:28:16.914Z,1.80
2018-06-19T20:30:45.367Z,2.20
2018-06-19T20:33:13.999Z,1.93
2018-06-19T20:35:42.505Z,2.03
2018-06-19T20:38:10.935Z,2.00
2018-06-19T20:40:40.336Z,2.27
2018-06-19T20:43:08.824Z,1.87
2018-06-19T20:45:37.312Z,2.00
2018-06-19T20:48:05.782Z,2.83
2018-06-19T20:50:34.309Z,2.03
2018-06-19T20:53:02.792Z,2.00
2018-06-19T20:55:32.213Z,2.37
2018-06-19T20:58:00.684Z,2.00
2018-06-19T21:00:29.182Z,2.47
2018-06-19T21:02:57.917Z,2.20
2018-06-19T21:05:26.410Z,2.17
2018-06-19T21:07:54.854Z,2.03
2018-06-19T21:10:23.352Z,2.20
2018-06-19T21:12:51.837Z,1.83
2018-06-19T21:15:20.298Z,2.10
2018-06-19T21:17:48.775Z,2.23
2018-06-19T21:20:17.413Z,2.30
2018-06-19T21:22:45.888Z,2.27
2018-06-19T21:25:14.529Z,1.90
2018-06-19T21:27:43.003Z,1.90
2018-06-19T21:30:11.511Z,2.20
2018-06-19T21:32:40.004Z,2.10
2018-06-19T21:35:08.482Z,2.17
2018-06-19T21:37:36.960Z,2.10
2018-06-19T21:40:05.256Z,2.70
2018-06-19T21:42:33.497Z,2.60
2018-06-19T21:45:01.972Z,2.33
2018-06-19T21:47:30.511Z,2.33
2018-06-19T21:49:58.960Z,2.20
2018-06-19T21:52:27.460Z,2.33
2018-06-19T21:54:55.943Z,2.30
2018-06-19T21:57:24.434Z,2.37
2018-06-19T21:59:52.869Z,2.63
2018-06-19T22:02:26.758Z,2.20
2018-06-19T22:04:54.932Z,2.37
2018-06-19T22:07:23.092Z,2.50
2018-06-19T22:09:51.567Z,2.17
2018-06-19T22:12:20.030Z,2.60
2018-06-19T22:14:48.524Z,2.27
2018-06-19T22:17:17.312Z,2.53
2018-06-19T22:19:45.781Z,2.37
2018-06-19T22:22:14.231Z,2.13
2018-06-19T22:24:42.405Z,2.20
2018-06-19T22:27:10.589Z,2.30
2018-06-19T22:29:38.805Z,2.43
2018-06-19T22:32:07.394Z,2.43
2018-06-19T22:34:35.947Z,2.77
2018-06-19T22:37:04.172Z,2.37
2018-06-19T22:39:32.663Z,2.60
2018-06-19T22:42:01.233Z,2.50
2018-06-19T22:44:29.940Z,2.27
2018-06-19T22:46:58.822Z,2.60
2018-06-19T22:49:27.353Z,2.33
2018-06-19T22:51:55.813Z,2.53
2018-06-19T22:54:24.050Z,2.83
2018-06-19T22:56:52.536Z,2.90
2018-06-19T22:59:21.101Z,2.43
2018-06-19T23:01:49.537Z,2.53
2018-06-19T23:04:18.090Z,2.67
2018-06-19T23:06:46.631Z,2.57
2018-06-19T23:09:15.259Z,2.60
2018-06-19T23:11:44.606Z,2.47
2018-06-19T23:14:13.278Z,2.50
2018-06-19T23:16:41.939Z,2.50
2018-06-19T23:19:10.237Z,2.73
2018-06-19T23:21:38.683Z,2.67
2018-06-19T23:24:07.244Z,2.60
2018-06-19T23:26:35.715Z,3.03
2018-06-19T23:29:04.196Z,2.70
2018-06-19T23:31:32.774Z,2.67
2018-06-19T23:34:01.324Z,3.10
2018-06-19T23:36:29.812Z,3.00
2018-06-19T23:38:58.244Z,2.70
2018-06-19T23:41:26.829Z,2.67
2018-06-19T23:43:55.478Z,3.00
2018-06-19T23:46:23.924Z,2.90
2018-06-19T23:48:52.444Z,2.90
2018-06-19T23:51:20.975Z,2.73
2018-06-19T23:53:49.514Z,2.80
2018-06-19T23:56:17.996Z,2.50
2018-06-19T23:58:46.536Z,2.67
